Bia?a Podlaska Airport


Codes: EPBP/BXP
Name: Bia?a Podlaska Airport
City: Bia?a Podlaska
Country: Poland
Elevation: 495 ft.
Wikipedia:

Photos at Bia?a Podlaska Airport


   Photos courtesy of SpottingLog. You can add your own sightings and photos by signing up for a free trial today.



No photos found.

Weather at Bia?a Podlaska Airport


Time (UTC)DescriptionTempratureWindCloud coverageVisibilityPressureHumidity
16-Jun-2024 12:00Clear Sky23°C7 mph, SE6%10000m1012hPa50%
16-Jun-2024 15:00Broken Clouds23°C4 mph, E65%10000m1011hPa58%
16-Jun-2024 18:00Broken Clouds19°C7 mph, E78%10000m1011hPa73%
16-Jun-2024 21:00Scattered Clouds16°C4 mph, NW40%10000m1012hPa89%
17-Jun-2024 00:00Light Rain16°C4 mph, NW70%10000m1012hPa90%
17-Jun-2024 03:00Overcast Clouds16°C7 mph, W92%10000m1013hPa93%
17-Jun-2024 06:00Broken Clouds19°C9 mph, NW51%10000m1014hPa77%
17-Jun-2024 09:00Light Rain22°C11 mph, W42%10000m1014hPa67%
17-Jun-2024 12:00Light Rain25°C13 mph, NW49%10000m1014hPa49%
17-Jun-2024 15:00Few Clouds25°C13 mph, NW23%10000m1014hPa50%
17-Jun-2024 18:00Few Clouds20°C7 mph, NW23%10000m1015hPa68%
17-Jun-2024 21:00Few Clouds17°C4 mph, NW12%10000m1016hPa74%
18-Jun-2024 00:00Broken Clouds17°C4 mph, SW51%10000m1017hPa75%
18-Jun-2024 03:00Overcast Clouds18°C7 mph, SW92%10000m1017hPa66%
18-Jun-2024 06:00Overcast Clouds21°C7 mph, W92%10000m1017hPa67%
18-Jun-2024 09:00Overcast Clouds24°C7 mph, W100%10000m1018hPa56%
18-Jun-2024 12:00Broken Clouds27°C11 mph, SW83%10000m1017hPa48%
18-Jun-2024 15:00Broken Clouds25°C4 mph, W83%10000m1016hPa64%
18-Jun-2024 18:00Light Rain20°C0 mph, SE83%10000m1015hPa82%
18-Jun-2024 21:00Light Rain17°C2 mph, S64%10000m1015hPa92%
19-Jun-2024 00:00Light Rain17°C7 mph, S82%10000m1014hPa96%
19-Jun-2024 03:00Overcast Clouds17°C7 mph, S100%10000m1012hPa94%
19-Jun-2024 06:00Light Rain22°C11 mph, S100%10000m1011hPa80%
19-Jun-2024 09:00Light Rain25°C16 mph, SW95%10000m1009hPa71%
19-Jun-2024 12:00Light Rain19°C20 mph, W97%10000m1011hPa89%
19-Jun-2024 15:00Light Rain19°C18 mph, NW70%10000m1013hPa59%
19-Jun-2024 18:00Light Rain15°C13 mph, NW74%10000m1015hPa75%
19-Jun-2024 21:00Clear Sky12°C11 mph, W0%10000m1017hPa86%
20-Jun-2024 00:00Clear Sky11°C11 mph, W0%10000m1018hPa86%
20-Jun-2024 03:00Clear Sky11°C11 mph, W2%10000m1019hPa85%
20-Jun-2024 06:00Clear Sky14°C13 mph, W3%10000m1020hPa69%
20-Jun-2024 09:00Few Clouds18°C13 mph, W24%10000m1020hPa53%
20-Jun-2024 12:00Few Clouds21°C16 mph, W12%10000m1020hPa39%
20-Jun-2024 15:00Clear Sky21°C13 mph, NW0%10000m1020hPa43%
20-Jun-2024 18:00Clear Sky17°C7 mph, NW0%10000m1020hPa67%
20-Jun-2024 21:00Clear Sky14°C4 mph, W5%10000m1020hPa73%
21-Jun-2024 00:00Clear Sky13°C4 mph, W4%10000m1020hPa77%
21-Jun-2024 03:00Clear Sky12°C4 mph, SW3%10000m1020hPa76%
21-Jun-2024 06:00Scattered Clouds18°C7 mph, SW35%10000m1020hPa60%
21-Jun-2024 09:00Scattered Clouds23°C7 mph, SW26%10000m1019hPa45%